WetterOnline ( https://www.wetteronline.de )

Wetter aktuell Schweinbach

Aktuelles Wetter: Linz Flughafen (313m)

6-stündlich | Neueste Meldungen
Ortszeit Temperatur Wetter
Di, 21.05. 8:00 10.7° C leichter Regen
Di, 21.05. 2:00 11.9° C leichter Regen
Mo, 20.05. 20:00 14.5° C bewölkt
Mo, 20.05. 14:00 13.8° C leichter Regen
Mo, 20.05. 8:00 12.9° C leichter Regen
Mo, 20.05. 2:00 12.8° C fast wolkenlos
So, 19.05. 20:00 19.9° C fast wolkenlos
So, 19.05. 14:00 22.0° C leicht bewölkt
Ortszeit Temperatur Wetter
Di, 21.05. 10:20 12° C leichter Regen
Di, 21.05. 10:00 12.1° C leichter Regen
Di, 21.05. 9:50 12° C leichter Regen
Di, 21.05. 9:20 12° C leichter Regen
Di, 21.05. 9:00 11.8° C Regen
Di, 21.05. 8:50 12° C Regen
Di, 21.05. 8:20 11° C Regen
Di, 21.05. 8:00 10.7° C leichter Regen
Di, 21.05. 7:20 11° C leichter Regen
Di, 21.05. 7:00 10.7° C leichter Regen
Ortszeit Relative Feuchte Sichtweite
Di, 21.05. 8:00 96% 2.2 km
Di, 21.05. 2:00 95% 16 km
Mo, 20.05. 20:00 86% 70 km
Mo, 20.05. 14:00 92% 13 km
Mo, 20.05. 8:00 91% 9 km
Mo, 20.05. 2:00 83% 26 km
So, 19.05. 20:00 54% 50 km
So, 19.05. 14:00 41% 40 km
Ortszeit Relative Feuchte Sichtweite
Di, 21.05. 10:20 88% >10 km
Di, 21.05. 10:00 90% 4.4 km
Di, 21.05. 9:50 94% 5.0 km
Di, 21.05. 9:20 94% 5.0 km
Di, 21.05. 9:00 93% 3.2 km
Di, 21.05. 8:50 94% 5.0 km
Di, 21.05. 8:20 94% 5.0 km
Di, 21.05. 8:00 96% 2.2 km
Di, 21.05. 7:20 94% 6 km
Di, 21.05. 7:00 97% 12 km
Ortszeit Niederschlagsmenge Niederschlagsart
Di, 21.05. 8:00 12 l/m2 in 12 Std. -
Di, 21.05. 2:00 2 l/m2 in 6 Std. -
Mo, 20.05. 20:00 29 l/m2 in 12 Std. -
Mo, 20.05. 14:00 28 l/m2 in 6 Std. -
Mo, 20.05. 8:00 0.1 l/m2 in 12 Std. -
Mo, 20.05. 2:00 keine Meldung -
So, 19.05. 20:00 keine Meldung -
So, 19.05. 14:00 keine Meldung -
Ortszeit Niederschlagsmenge Niederschlagsart
Di, 21.05. 10:20 keine Meldung -
Di, 21.05. 10:00 1.0 l/m2 in 1 Std. -
Di, 21.05. 9:50 keine Meldung -
Di, 21.05. 9:20 keine Meldung -
Di, 21.05. 9:00 3.0 l/m2 in 1 Std. -
Di, 21.05. 8:50 keine Meldung -
Di, 21.05. 8:20 keine Meldung -
Di, 21.05. 8:00 2.0 l/m2 in 1 Std. -
Di, 21.05. 7:20 keine Meldung -
Di, 21.05. 7:00 1.0 l/m2 in 1 Std. -
Ortszeit Stärke Spitze Richtung
km/h Bft. km/h Grad Sektor
Di, 21.05. 8:00 7 2 - - -
Di, 21.05. 2:00 7 2 - - -
Mo, 20.05. 20:00 4 1 - - -
Mo, 20.05. 14:00 7 2 - - -
Mo, 20.05. 8:00 4 1 - - -
Mo, 20.05. 2:00 7 2 - - -
So, 19.05. 20:00 18 3 - 80° O
So, 19.05. 14:00 11 2 - 110° O
Ortszeit Stärke Spitze Richtung
km/h Bft. km/h Grad Sektor
Di, 21.05. 10:20 24 4 - 240° SW
Di, 21.05. 10:00 25 4 - 240° SW
Di, 21.05. 9:50 26 4 - 240° SW
Di, 21.05. 9:20 22 4 - 240° SW
Di, 21.05. 9:00 14 3 - 240° SW
Di, 21.05. 8:50 15 3 - 240° SW
Di, 21.05. 8:20 7 2 - 220° SW
Di, 21.05. 8:00 7 2 - - -
Di, 21.05. 7:20 7 2 - 210° SW
Di, 21.05. 7:00 7 2 - - -
Ortszeit Untergrenze Bedeckung Gattung
total tief tief mittel hoch
Di, 21.05. 8:00 120 m 8/8 7/8 St - -
Di, 21.05. 2:00 510 m 8/8 5/8 - - -
Mo, 20.05. 20:00 660 m 8/8 5/8 - - -
Mo, 20.05. 14:00 150 m 8/8 5/8 - - -
Mo, 20.05. 8:00 840 m 8/8 5/8 - - -
Mo, 20.05. 2:00 4500 m 1/8 1/8 - - -
So, 19.05. 20:00 3600 m 1/8 1/8 - - -
So, 19.05. 14:00 1800 m 6/8 1/8 Cu - Ci
Ortszeit Bedeckungsgrad in Achtel und Wolkenuntergrenze
Di, 21.05. 10:20 1-2(240m) 3-4(480m) 5-7(720m)
Di, 21.05. 10:00 1(240m) 3(450m) 7(720m)
Di, 21.05. 9:50 1-2(240m) 3-4(450m) 5-7(720m)
Di, 21.05. 9:20 1-2(180m) 3-4(360m) 5-7(690m)
Di, 21.05. 9:00 1(210m) 3(360m) 7(660m)
Di, 21.05. 8:50 1-2(210m) 3-4(360m) 5-7(660m)
Di, 21.05. 8:20 1-2(120m) 5-7(360m) 5-7(540m)
Di, 21.05. 8:00 1(120m) 5(300m) 7(540m)
Di, 21.05. 7:20 1-2(210m) 3-4(420m) 5-7(540m)
Di, 21.05. 7:00 1(270m) 3(480m) 7(690m)
Ortszeit Luftdruck NN (hPa) Tendenz (hPa in 3 Std.)
Di, 21.05. 8:00 1005 + 0,7
Di, 21.05. 2:00 1003 0,0
Mo, 20.05. 20:00 1002 + 0,2
Mo, 20.05. 14:00 1002 + 0,7
Mo, 20.05. 8:00 1001 0,0
Mo, 20.05. 2:00 1001 + 0,3
So, 19.05. 20:00 1000 - 0,5
So, 19.05. 14:00 1001 - 1,3
Ortszeit Luftdruck NN (hPa) Tendenz (hPa in 3 Std.)
Di, 21.05. 10:20 1005 keine Meldung
Di, 21.05. 10:00 1005 + 1,0
Di, 21.05. 9:50 1005 keine Meldung
Di, 21.05. 9:20 1005 keine Meldung
Di, 21.05. 9:00 1005 + 0,7
Di, 21.05. 8:50 1004 keine Meldung
Di, 21.05. 8:20 1004 keine Meldung
Di, 21.05. 8:00 1005 + 0,7
Di, 21.05. 7:20 1004 keine Meldung
Di, 21.05. 7:00 1004 + 0,7
Ortszeit Schneehöhe (cm)
Di, 21.05. 8:00 -
Di, 21.05. 2:00 -
Mo, 20.05. 20:00 -
Mo, 20.05. 14:00 -
Mo, 20.05. 8:00 -
Mo, 20.05. 2:00 -
So, 19.05. 20:00 -
So, 19.05. 14:00 -
Ortszeit Schneehöhe (cm)
Di, 21.05. 10:20 -
Di, 21.05. 10:00 -
Di, 21.05. 9:50 -
Di, 21.05. 9:20 -
Di, 21.05. 9:00 -
Di, 21.05. 8:50 -
Di, 21.05. 8:20 -
Di, 21.05. 8:00 -
Di, 21.05. 7:20 -
Di, 21.05. 7:00 -
Link zu dieser Seite / Seite empfehlen

Das Wetter in ...